sensor_id;sensor_type;location;lat;lon;timestamp;P1;durP1;ratioP1;P2;durP2;ratioP2
27979;SDS011;15315;50.836;4.430;2023-06-19T00:07:47;8.35;;;4.22;;
27979;SDS011;15315;50.836;4.430;2023-06-19T00:17:47;6.47;;;4.65;;
27979;SDS011;15315;50.836;4.430;2023-06-19T00:27:47;7.68;;;4.18;;
27979;SDS011;15315;50.836;4.430;2023-06-19T00:37:48;5.18;;;3.85;;
27979;SDS011;15315;50.836;4.430;2023-06-19T00:47:48;7.07;;;3.85;;
27979;SDS011;15315;50.836;4.430;2023-06-19T00:57:49;6.28;;;3.60;;
27979;SDS011;15315;50.836;4.430;2023-06-19T01:08:07;5.53;;;3.35;;
27979;SDS011;15315;50.836;4.430;2023-06-19T01:18:13;6.72;;;3.55;;
27979;SDS011;15315;50.836;4.430;2023-06-19T01:28:14;5.38;;;3.63;;
27979;SDS011;15315;50.836;4.430;2023-06-19T01:38:15;6.45;;;3.70;;
27979;SDS011;15315;50.836;4.430;2023-06-19T01:48:17;7.45;;;4.15;;
27979;SDS011;15315;50.836;4.430;2023-06-19T01:58:17;7.63;;;4.22;;
27979;SDS011;15315;50.836;4.430;2023-06-19T02:08:17;12.45;;;4.45;;
27979;SDS011;15315;50.836;4.430;2023-06-19T02:18:18;7.97;;;4.38;;
27979;SDS011;15315;50.836;4.430;2023-06-19T02:28:18;6.85;;;4.07;;
27979;SDS011;15315;50.836;4.430;2023-06-19T02:38:19;10.77;;;4.38;;
27979;SDS011;15315;50.836;4.430;2023-06-19T02:48:21;10.77;;;4.53;;
27979;SDS011;15315;50.836;4.430;2023-06-19T02:58:23;14.55;;;5.78;;
27979;SDS011;15315;50.836;4.430;2023-06-19T03:08:23;10.38;;;5.70;;
27979;SDS011;15315;50.836;4.430;2023-06-19T03:18:24;12.15;;;7.07;;
27979;SDS011;15315;50.836;4.430;2023-06-19T03:28:24;14.18;;;8.90;;
27979;SDS011;15315;50.836;4.430;2023-06-19T03:38:24;11.57;;;8.30;;
27979;SDS011;15315;50.836;4.430;2023-06-19T03:48:25;14.10;;;10.35;;
27979;SDS011;15315;50.836;4.430;2023-06-19T03:58:25;18.70;;;13.00;;
27979;SDS011;15315;50.836;4.430;2023-06-19T04:08:25;18.27;;;12.60;;
27979;SDS011;15315;50.836;4.430;2023-06-19T04:18:26;12.82;;;10.52;;
27979;SDS011;15315;50.836;4.430;2023-06-19T04:28:27;16.17;;;11.20;;
27979;SDS011;15315;50.836;4.430;2023-06-19T04:38:28;16.58;;;10.73;;
27979;SDS011;15315;50.836;4.430;2023-06-19T04:48:28;17.30;;;11.50;;
27979;SDS011;15315;50.836;4.430;2023-06-19T04:58:29;18.88;;;12.48;;
27979;SDS011;15315;50.836;4.430;2023-06-19T05:08:29;13.40;;;11.25;;
27979;SDS011;15315;50.836;4.430;2023-06-19T05:18:30;16.13;;;11.20;;
27979;SDS011;15315;50.836;4.430;2023-06-19T05:28:30;20.67;;;11.57;;
27979;SDS011;15315;50.836;4.430;2023-06-19T05:38:31;21.20;;;11.63;;
27979;SDS011;15315;50.836;4.430;2023-06-19T05:48:31;21.00;;;11.82;;
27979;SDS011;15315;50.836;4.430;2023-06-19T05:58:32;16.25;;;11.43;;
27979;SDS011;15315;50.836;4.430;2023-06-19T06:08:32;18.20;;;12.68;;
27979;SDS011;15315;50.836;4.430;2023-06-19T06:18:32;27.45;;;13.27;;
27979;SDS011;15315;50.836;4.430;2023-06-19T06:28:33;22.60;;;12.52;;
27979;SDS011;15315;50.836;4.430;2023-06-19T06:38:33;19.90;;;15.98;;
27979;SDS011;15315;50.836;4.430;2023-06-19T06:48:34;19.70;;;13.75;;
27979;SDS011;15315;50.836;4.430;2023-06-19T06:58:34;20.08;;;12.80;;
27979;SDS011;15315;50.836;4.430;2023-06-19T07:08:35;19.85;;;12.25;;
27979;SDS011;15315;50.836;4.430;2023-06-19T07:18:35;17.33;;;12.38;;
27979;SDS011;15315;50.836;4.430;2023-06-19T07:28:38;17.58;;;11.23;;
27979;SDS011;15315;50.836;4.430;2023-06-19T07:38:39;17.23;;;11.57;;
27979;SDS011;15315;50.836;4.430;2023-06-19T07:48:40;19.27;;;10.88;;
27979;SDS011;15315;50.836;4.430;2023-06-19T07:58:40;15.88;;;10.80;;
27979;SDS011;15315;50.836;4.430;2023-06-19T08:08:41;19.55;;;10.13;;
27979;SDS011;15315;50.836;4.430;2023-06-19T08:18:41;18.23;;;10.30;;
27979;SDS011;15315;50.836;4.430;2023-06-19T08:28:42;19.95;;;9.68;;
27979;SDS011;15315;50.836;4.430;2023-06-19T08:38:42;16.42;;;10.32;;
27979;SDS011;15315;50.836;4.430;2023-06-19T08:48:43;19.27;;;9.15;;
27979;SDS011;15315;50.836;4.430;2023-06-19T08:58:44;14.23;;;8.85;;
27979;SDS011;15315;50.836;4.430;2023-06-19T09:08:45;11.38;;;8.23;;
27979;SDS011;15315;50.836;4.430;2023-06-19T09:18:46;20.33;;;9.13;;
27979;SDS011;15315;50.836;4.430;2023-06-19T09:28:48;14.77;;;9.20;;
27979;SDS011;15315;50.836;4.430;2023-06-19T09:38:50;18.15;;;8.45;;
27979;SDS011;15315;50.836;4.430;2023-06-19T09:48:52;13.65;;;9.02;;
27979;SDS011;15315;50.836;4.430;2023-06-19T09:58:59;15.55;;;8.93;;
27979;SDS011;15315;50.836;4.430;2023-06-19T10:09:06;19.25;;;9.20;;
27979;SDS011;15315;50.836;4.430;2023-06-19T10:19:11;15.93;;;8.45;;
27979;SDS011;15315;50.836;4.430;2023-06-19T10:29:17;14.18;;;9.30;;
27979;SDS011;15315;50.836;4.430;2023-06-19T10:39:17;12.27;;;8.10;;
27979;SDS011;15315;50.836;4.430;2023-06-19T10:49:18;13.40;;;8.02;;
27979;SDS011;15315;50.836;4.430;2023-06-19T10:59:18;12.52;;;8.00;;
27979;SDS011;15315;50.836;4.430;2023-06-19T11:09:18;18.42;;;8.82;;
27979;SDS011;15315;50.836;4.430;2023-06-19T11:19:20;15.03;;;9.30;;
27979;SDS011;15315;50.836;4.430;2023-06-19T11:29:31;13.52;;;8.32;;
27979;SDS011;15315;50.836;4.430;2023-06-19T11:39:32;17.40;;;8.30;;
27979;SDS011;15315;50.836;4.430;2023-06-19T11:49:36;12.63;;;7.53;;
27979;SDS011;15315;50.836;4.430;2023-06-19T11:59:36;13.90;;;7.97;;
27979;SDS011;15315;50.836;4.430;2023-06-19T12:09:36;10.68;;;6.55;;
27979;SDS011;15315;50.836;4.430;2023-06-19T12:19:38;11.30;;;6.90;;
27979;SDS011;15315;50.836;4.430;2023-06-19T12:29:39;12.75;;;5.85;;
27979;SDS011;15315;50.836;4.430;2023-06-19T12:39:40;11.30;;;6.47;;
27979;SDS011;15315;50.836;4.430;2023-06-19T12:49:41;10.93;;;5.80;;
27979;SDS011;15315;50.836;4.430;2023-06-19T12:59:41;16.90;;;6.57;;
27979;SDS011;15315;50.836;4.430;2023-06-19T13:09:41;10.52;;;6.47;;
27979;SDS011;15315;50.836;4.430;2023-06-19T13:19:42;20.70;;;7.28;;
27979;SDS011;15315;50.836;4.430;2023-06-19T13:29:43;11.98;;;6.28;;
27979;SDS011;15315;50.836;4.430;2023-06-19T13:39:44;12.00;;;5.68;;
27979;SDS011;15315;50.836;4.430;2023-06-19T13:49:44;7.07;;;5.40;;
27979;SDS011;15315;50.836;4.430;2023-06-19T13:59:45;13.40;;;6.47;;
27979;SDS011;15315;50.836;4.430;2023-06-19T14:09:45;7.22;;;5.30;;
27979;SDS011;15315;50.836;4.430;2023-06-19T14:19:45;14.25;;;5.38;;
27979;SDS011;15315;50.836;4.430;2023-06-19T14:29:46;9.23;;;5.35;;
27979;SDS011;15315;50.836;4.430;2023-06-19T14:39:46;6.53;;;4.88;;
27979;SDS011;15315;50.836;4.430;2023-06-19T14:49:47;10.80;;;5.57;;
27979;SDS011;15315;50.836;4.430;2023-06-19T14:59:47;5.93;;;5.28;;
27979;SDS011;15315;50.836;4.430;2023-06-19T15:09:48;12.35;;;5.30;;
27979;SDS011;15315;50.836;4.430;2023-06-19T15:19:48;6.40;;;4.90;;
27979;SDS011;15315;50.836;4.430;2023-06-19T15:29:48;6.30;;;5.18;;
27979;SDS011;15315;50.836;4.430;2023-06-19T15:39:49;7.50;;;5.15;;
27979;SDS011;15315;50.836;4.430;2023-06-19T15:49:51;13.75;;;5.40;;
27979;SDS011;15315;50.836;4.430;2023-06-19T15:59:52;7.25;;;4.93;;
27979;SDS011;15315;50.836;4.430;2023-06-19T16:09:52;8.07;;;5.90;;
27979;SDS011;15315;50.836;4.430;2023-06-19T16:19:53;11.88;;;6.43;;
27979;SDS011;15315;50.836;4.430;2023-06-19T16:29:53;8.88;;;5.60;;
27979;SDS011;15315;50.836;4.430;2023-06-19T16:39:53;10.57;;;5.45;;
27979;SDS011;15315;50.836;4.430;2023-06-19T16:49:54;6.57;;;4.68;;
27979;SDS011;15315;50.836;4.430;2023-06-19T16:59:58;10.50;;;5.05;;
27979;SDS011;15315;50.836;4.430;2023-06-19T17:09:59;5.75;;;4.90;;
27979;SDS011;15315;50.836;4.430;2023-06-19T17:19:59;9.55;;;5.15;;
27979;SDS011;15315;50.836;4.430;2023-06-19T17:30:00;8.00;;;4.83;;
27979;SDS011;15315;50.836;4.430;2023-06-19T17:40:02;6.30;;;5.70;;
27979;SDS011;15315;50.836;4.430;2023-06-19T17:50:04;7.03;;;4.90;;
27979;SDS011;15315;50.836;4.430;2023-06-19T18:00:05;10.40;;;5.40;;
27979;SDS011;15315;50.836;4.430;2023-06-19T18:10:07;7.95;;;5.07;;
27979;SDS011;15315;50.836;4.430;2023-06-19T18:20:08;5.68;;;4.63;;
27979;SDS011;15315;50.836;4.430;2023-06-19T18:30:09;10.63;;;5.35;;
27979;SDS011;15315;50.836;4.430;2023-06-19T18:40:10;9.80;;;5.60;;
27979;SDS011;15315;50.836;4.430;2023-06-19T18:50:11;6.95;;;5.22;;
27979;SDS011;15315;50.836;4.430;2023-06-19T19:00:16;8.87;;;5.03;;
27979;SDS011;15315;50.836;4.430;2023-06-19T19:10:18;10.07;;;5.10;;
27979;SDS011;15315;50.836;4.430;2023-06-19T19:20:18;12.07;;;5.65;;
27979;SDS011;15315;50.836;4.430;2023-06-19T19:30:19;10.63;;;6.50;;
27979;SDS011;15315;50.836;4.430;2023-06-19T19:40:19;8.65;;;5.30;;
27979;SDS011;15315;50.836;4.430;2023-06-19T19:50:20;7.93;;;5.15;;
27979;SDS011;15315;50.836;4.430;2023-06-19T20:00:21;10.52;;;5.25;;
27979;SDS011;15315;50.836;4.430;2023-06-19T20:10:21;12.38;;;7.15;;
27979;SDS011;15315;50.836;4.430;2023-06-19T20:20:22;26.80;;;18.00;;
27979;SDS011;15315;50.836;4.430;2023-06-19T20:30:22;25.13;;;6.25;;
27979;SDS011;15315;50.836;4.430;2023-06-19T20:40:25;12.30;;;6.20;;
27979;SDS011;15315;50.836;4.430;2023-06-19T20:50:27;13.20;;;5.80;;
27979;SDS011;15315;50.836;4.430;2023-06-19T21:00:28;7.78;;;5.47;;
27979;SDS011;15315;50.836;4.430;2023-06-19T21:10:28;12.25;;;5.60;;
27979;SDS011;15315;50.836;4.430;2023-06-19T21:20:28;10.90;;;6.00;;
27979;SDS011;15315;50.836;4.430;2023-06-19T21:30:29;13.07;;;5.43;;
27979;SDS011;15315;50.836;4.430;2023-06-19T21:40:31;11.48;;;5.68;;
27979;SDS011;15315;50.836;4.430;2023-06-19T21:50:32;18.83;;;6.05;;
27979;SDS011;15315;50.836;4.430;2023-06-19T22:00:32;12.38;;;6.13;;
27979;SDS011;15315;50.836;4.430;2023-06-19T22:10:32;10.85;;;6.13;;
27979;SDS011;15315;50.836;4.430;2023-06-19T22:20:33;9.65;;;6.70;;
27979;SDS011;15315;50.836;4.430;2023-06-19T22:30:33;7.43;;;5.70;;
27979;SDS011;15315;50.836;4.430;2023-06-19T22:40:33;8.75;;;6.30;;
27979;SDS011;15315;50.836;4.430;2023-06-19T22:50:34;11.00;;;6.40;;
27979;SDS011;15315;50.836;4.430;2023-06-19T23:00:35;13.77;;;6.07;;
27979;SDS011;15315;50.836;4.430;2023-06-19T23:10:35;7.25;;;5.38;;
27979;SDS011;15315;50.836;4.430;2023-06-19T23:20:35;8.82;;;5.80;;
27979;SDS011;15315;50.836;4.430;2023-06-19T23:30:36;9.55;;;6.20;;
27979;SDS011;15315;50.836;4.430;2023-06-19T23:40:37;13.77;;;5.78;;
27979;SDS011;15315;50.836;4.430;2023-06-19T23:50:38;6.80;;;5.60;;
